sensor_id;sensor_type;location;lat;lon;timestamp;pressure;altitude;pressure_sealevel;temperature;humidity
69245;BME280;56357;52.304;4.870;2023-09-19T00:01:39;100835.78;;;22.55;56.49
69245;BME280;56357;52.304;4.870;2023-09-19T00:04:09;100841.06;;;22.62;56.38
69245;BME280;56357;52.304;4.870;2023-09-19T00:06:38;100843.50;;;22.50;56.73
69245;BME280;56357;52.304;4.870;2023-09-19T00:09:05;100845.84;;;22.61;58.10
69245;BME280;56357;52.304;4.870;2023-09-19T00:11:35;100858.00;;;22.62;55.58
69245;BME280;56357;52.304;4.870;2023-09-19T00:14:02;100855.69;;;22.64;55.40
69245;BME280;56357;52.304;4.870;2023-09-19T00:16:30;100862.56;;;22.58;57.32
69245;BME280;56357;52.304;4.870;2023-09-19T00:18:57;100866.47;;;22.62;56.47
69245;BME280;56357;52.304;4.870;2023-09-19T00:21:24;100858.63;;;22.86;56.47
69245;BME280;56357;52.304;4.870;2023-09-19T00:23:51;100859.88;;;22.66;55.83
69245;BME280;56357;52.304;4.870;2023-09-19T00:26:18;100860.41;;;22.68;55.97
69245;BME280;56357;52.304;4.870;2023-09-19T00:28:46;100869.50;;;22.65;55.41
69245;BME280;56357;52.304;4.870;2023-09-19T00:31:12;100864.91;;;22.69;55.86
69245;BME280;56357;52.304;4.870;2023-09-19T00:33:39;100867.25;;;22.49;55.56
69245;BME280;56357;52.304;4.870;2023-09-19T00:36:06;100869.09;;;22.53;55.80
69245;BME280;56357;52.304;4.870;2023-09-19T00:38:32;100871.28;;;22.43;55.21
69245;BME280;56357;52.304;4.870;2023-09-19T00:40:58;100877.03;;;22.38;55.59
69245;BME280;56357;52.304;4.870;2023-09-19T00:43:25;100879.84;;;22.56;55.29
69245;BME280;56357;52.304;4.870;2023-09-19T00:45:53;100880.28;;;22.45;55.20
69245;BME280;56357;52.304;4.870;2023-09-19T00:48:21;100886.22;;;22.62;57.23
69245;BME280;56357;52.304;4.870;2023-09-19T00:50:50;100885.03;;;22.49;54.70
69245;BME280;56357;52.304;4.870;2023-09-19T00:53:20;100881.75;;;22.42;55.37
69245;BME280;56357;52.304;4.870;2023-09-19T00:55:48;100886.41;;;22.33;55.17
69245;BME280;56357;52.304;4.870;2023-09-19T00:58:17;100881.84;;;22.37;55.26
69245;BME280;56357;52.304;4.870;2023-09-19T01:00:44;100879.75;;;22.43;55.89
69245;BME280;56357;52.304;4.870;2023-09-19T01:03:11;100882.28;;;22.44;55.50
69245;BME280;56357;52.304;4.870;2023-09-19T01:05:38;100883.66;;;22.47;55.03
69245;BME280;56357;52.304;4.870;2023-09-19T01:08:05;100881.53;;;22.39;55.98
69245;BME280;56357;52.304;4.870;2023-09-19T01:10:33;100875.66;;;22.35;57.16
69245;BME280;56357;52.304;4.870;2023-09-19T01:32:01;100881.41;;;22.44;55.57
69245;BME280;56357;52.304;4.870;2023-09-19T01:34:52;100892.00;;;22.52;57.29
69245;BME280;56357;52.304;4.870;2023-09-19T01:37:21;100893.03;;;22.61;55.16
69245;BME280;56357;52.304;4.870;2023-09-19T01:40:17;100899.88;;;22.55;56.88
69245;BME280;56357;52.304;4.870;2023-09-19T01:42:58;100894.78;;;22.57;55.41
69245;BME280;56357;52.304;4.870;2023-09-19T01:51:10;100890.72;;;22.44;55.10
69245;BME280;56357;52.304;4.870;2023-09-19T01:53:57;100881.78;;;22.56;55.30
69245;BME280;56357;52.304;4.870;2023-09-19T01:56:45;100884.03;;;22.59;55.20
69245;BME280;56357;52.304;4.870;2023-09-19T01:59:17;100874.31;;;22.79;55.62
69245;BME280;56357;52.304;4.870;2023-09-19T02:01:47;100883.19;;;22.58;55.43
69245;BME280;56357;52.304;4.870;2023-09-19T02:04:16;100878.16;;;22.37;55.28
69245;BME280;56357;52.304;4.870;2023-09-19T02:06:42;100881.09;;;22.32;56.03
69245;BME280;56357;52.304;4.870;2023-09-19T02:09:13;100892.72;;;22.44;55.52
69245;BME280;56357;52.304;4.870;2023-09-19T02:11:40;100899.03;;;22.54;55.27
69245;BME280;56357;52.304;4.870;2023-09-19T02:14:07;100891.34;;;22.60;55.32
69245;BME280;56357;52.304;4.870;2023-09-19T02:16:34;100896.38;;;22.63;55.93
69245;BME280;56357;52.304;4.870;2023-09-19T02:19:02;100895.25;;;22.45;55.47
69245;BME280;56357;52.304;4.870;2023-09-19T02:21:31;100896.53;;;22.53;56.00
69245;BME280;56357;52.304;4.870;2023-09-19T02:23:58;100900.25;;;22.48;55.68
69245;BME280;56357;52.304;4.870;2023-09-19T02:26:25;100904.59;;;22.59;56.07
69245;BME280;56357;52.304;4.870;2023-09-19T02:28:52;100899.63;;;22.70;54.93
69245;BME280;56357;52.304;4.870;2023-09-19T02:31:19;100904.78;;;22.49;55.61
69245;BME280;56357;52.304;4.870;2023-09-19T02:33:45;100904.63;;;22.41;56.74
69245;BME280;56357;52.304;4.870;2023-09-19T02:36:12;100901.84;;;22.54;55.34
69245;BME280;56357;52.304;4.870;2023-09-19T02:38:42;100914.00;;;22.55;55.79
69245;BME280;56357;52.304;4.870;2023-09-19T02:41:08;100907.88;;;22.48;55.60
69245;BME280;56357;52.304;4.870;2023-09-19T02:43:35;100922.38;;;22.60;55.40
69245;BME280;56357;52.304;4.870;2023-09-19T02:46:01;100916.53;;;22.56;55.36
69245;BME280;56357;52.304;4.870;2023-09-19T02:48:28;100901.81;;;22.41;54.74
69245;BME280;56357;52.304;4.870;2023-09-19T02:50:54;100906.50;;;22.32;55.34
69245;BME280;56357;52.304;4.870;2023-09-19T02:53:21;100900.91;;;22.27;55.53
69245;BME280;56357;52.304;4.870;2023-09-19T02:55:49;100898.25;;;22.35;55.83
69245;BME280;56357;52.304;4.870;2023-09-19T02:58:19;100897.66;;;22.20;55.43
69245;BME280;56357;52.304;4.870;2023-09-19T03:00:45;100894.56;;;22.35;56.67
69245;BME280;56357;52.304;4.870;2023-09-19T03:03:13;100893.34;;;22.09;56.38
69245;BME280;56357;52.304;4.870;2023-09-19T03:05:41;100898.19;;;22.22;56.04
69245;BME280;56357;52.304;4.870;2023-09-19T03:08:13;100884.19;;;22.17;55.68
69245;BME280;56357;52.304;4.870;2023-09-19T03:10:42;100891.84;;;22.11;56.50
69245;BME280;56357;52.304;4.870;2023-09-19T03:13:08;100887.13;;;22.25;55.88
69245;BME280;56357;52.304;4.870;2023-09-19T03:15:36;100887.16;;;22.39;56.57
69245;BME280;56357;52.304;4.870;2023-09-19T03:18:04;100881.69;;;22.29;55.68
69245;BME280;56357;52.304;4.870;2023-09-19T03:20:31;100883.97;;;22.27;55.48
69245;BME280;56357;52.304;4.870;2023-09-19T03:22:57;100890.16;;;22.29;55.67
69245;BME280;56357;52.304;4.870;2023-09-19T03:25:25;100891.09;;;22.24;54.97
69245;BME280;56357;52.304;4.870;2023-09-19T03:27:51;100891.25;;;22.14;55.77
69245;BME280;56357;52.304;4.870;2023-09-19T03:30:18;100892.38;;;22.32;56.83
69245;BME280;56357;52.304;4.870;2023-09-19T03:32:47;100888.28;;;22.24;55.12
69245;BME280;56357;52.304;4.870;2023-09-19T03:35:15;100886.59;;;22.23;55.63
69245;BME280;56357;52.304;4.870;2023-09-19T03:37:42;100894.19;;;22.23;55.60
69245;BME280;56357;52.304;4.870;2023-09-19T03:40:10;100904.16;;;22.20;56.71
69245;BME280;56357;52.304;4.870;2023-09-19T03:42:40;100892.69;;;22.12;55.32
69245;BME280;56357;52.304;4.870;2023-09-19T03:45:08;100906.75;;;22.17;55.32
69245;BME280;56357;52.304;4.870;2023-09-19T03:47:38;100915.41;;;22.02;55.94
69245;BME280;56357;52.304;4.870;2023-09-19T03:50:06;100913.22;;;21.99;55.98
69245;BME280;56357;52.304;4.870;2023-09-19T03:52:33;100914.19;;;22.08;56.08
69245;BME280;56357;52.304;4.870;2023-09-19T03:55:00;100916.56;;;22.01;56.29
69245;BME280;56357;52.304;4.870;2023-09-19T03:57:27;100911.63;;;21.93;55.71
69245;BME280;56357;52.304;4.870;2023-09-19T03:59:54;100913.31;;;21.94;55.96
69245;BME280;56357;52.304;4.870;2023-09-19T04:02:21;100917.03;;;21.89;55.81
69245;BME280;56357;52.304;4.870;2023-09-19T04:04:51;100918.69;;;21.90;55.91
69245;BME280;56357;52.304;4.870;2023-09-19T04:07:18;100924.78;;;22.16;56.19
69245;BME280;56357;52.304;4.870;2023-09-19T04:09:47;100920.31;;;22.15;55.82
69245;BME280;56357;52.304;4.870;2023-09-19T04:12:14;100919.84;;;22.08;56.17
69245;BME280;56357;52.304;4.870;2023-09-19T04:14:42;100924.97;;;22.24;56.01
69245;BME280;56357;52.304;4.870;2023-09-19T04:17:08;100928.91;;;22.23;56.55
69245;BME280;56357;52.304;4.870;2023-09-19T04:19:35;100933.56;;;22.14;57.06
69245;BME280;56357;52.304;4.870;2023-09-19T04:22:02;100930.81;;;22.28;56.26
69245;BME280;56357;52.304;4.870;2023-09-19T04:24:29;100938.00;;;22.20;56.29
69245;BME280;56357;52.304;4.870;2023-09-19T04:26:56;100939.31;;;22.09;56.02
69245;BME280;56357;52.304;4.870;2023-09-19T04:29:24;100942.03;;;22.14;55.63
69245;BME280;56357;52.304;4.870;2023-09-19T04:31:51;100938.69;;;22.12;56.40
69245;BME280;56357;52.304;4.870;2023-09-19T04:34:18;100937.63;;;22.08;56.41
69245;BME280;56357;52.304;4.870;2023-09-19T04:36:44;100937.69;;;22.03;56.05
69245;BME280;56357;52.304;4.870;2023-09-19T04:39:11;100933.72;;;22.04;55.79
69245;BME280;56357;52.304;4.870;2023-09-19T04:41:38;100937.06;;;22.25;56.36
69245;BME280;56357;52.304;4.870;2023-09-19T04:44:06;100937.78;;;22.17;54.96
69245;BME280;56357;52.304;4.870;2023-09-19T04:46:32;100936.41;;;22.14;55.32
69245;BME280;56357;52.304;4.870;2023-09-19T04:48:59;100944.25;;;21.99;56.33
69245;BME280;56357;52.304;4.870;2023-09-19T04:51:25;100932.81;;;22.09;55.78
69245;BME280;56357;52.304;4.870;2023-09-19T04:53:58;100945.94;;;22.18;56.22
69245;BME280;56357;52.304;4.870;2023-09-19T04:56:24;100952.09;;;22.02;56.17
69245;BME280;56357;52.304;4.870;2023-09-19T04:58:51;100952.63;;;22.04;55.41
69245;BME280;56357;52.304;4.870;2023-09-19T05:01:17;100949.88;;;21.99;55.96
69245;BME280;56357;52.304;4.870;2023-09-19T05:03:44;100947.69;;;21.96;56.24
69245;BME280;56357;52.304;4.870;2023-09-19T05:06:14;100942.28;;;21.99;55.90
69245;BME280;56357;52.304;4.870;2023-09-19T05:08:40;100946.09;;;21.90;57.12
69245;BME280;56357;52.304;4.870;2023-09-19T05:11:07;100948.81;;;21.95;56.94
69245;BME280;56357;52.304;4.870;2023-09-19T05:13:34;100947.69;;;21.96;55.83
69245;BME280;56357;52.304;4.870;2023-09-19T05:16:00;100940.88;;;21.97;56.32
69245;BME280;56357;52.304;4.870;2023-09-19T05:18:28;100940.19;;;22.23;56.57
69245;BME280;56357;52.304;4.870;2023-09-19T05:20:54;100936.31;;;22.19;56.14
69245;BME280;56357;52.304;4.870;2023-09-19T05:23:21;100939.38;;;22.04;56.42
69245;BME280;56357;52.304;4.870;2023-09-19T05:25:47;100939.22;;;21.96;57.30
69245;BME280;56357;52.304;4.870;2023-09-19T05:28:14;100950.97;;;22.03;57.30
69245;BME280;56357;52.304;4.870;2023-09-19T05:30:41;100943.84;;;22.24;56.96
69245;BME280;56357;52.304;4.870;2023-09-19T05:33:08;100943.31;;;22.22;57.66
69245;BME280;56357;52.304;4.870;2023-09-19T05:35:35;100955.53;;;22.36;58.34
69245;BME280;56357;52.304;4.870;2023-09-19T05:38:07;100948.28;;;22.30;56.13
69245;BME280;56357;52.304;4.870;2023-09-19T05:40:35;100953.63;;;22.31;57.20
69245;BME280;56357;52.304;4.870;2023-09-19T05:43:03;100957.19;;;22.00;56.17
69245;BME280;56357;52.304;4.870;2023-09-19T05:45:31;100947.28;;;22.02;57.23
69245;BME280;56357;52.304;4.870;2023-09-19T05:48:10;100948.28;;;21.93;55.90
69245;BME280;56357;52.304;4.870;2023-09-19T05:50:37;100957.66;;;21.88;56.47
69245;BME280;56357;52.304;4.870;2023-09-19T05:53:04;100963.22;;;22.12;57.38
69245;BME280;56357;52.304;4.870;2023-09-19T05:55:31;100977.88;;;21.95;56.50
69245;BME280;56357;52.304;4.870;2023-09-19T05:57:58;100967.56;;;22.23;55.56
69245;BME280;56357;52.304;4.870;2023-09-19T06:00:25;100973.59;;;21.98;57.07
69245;BME280;56357;52.304;4.870;2023-09-19T06:02:53;100975.34;;;21.94;57.55
69245;BME280;56357;52.304;4.870;2023-09-19T06:05:21;100974.19;;;21.95;56.97
69245;BME280;56357;52.304;4.870;2023-09-19T06:07:47;100970.91;;;22.25;56.16
69245;BME280;56357;52.304;4.870;2023-09-19T06:10:14;100964.97;;;22.08;57.04
69245;BME280;56357;52.304;4.870;2023-09-19T06:12:41;100968.25;;;21.96;56.64
69245;BME280;56357;52.304;4.870;2023-09-19T06:15:09;100967.72;;;21.94;56.62
69245;BME280;56357;52.304;4.870;2023-09-19T06:17:41;100964.66;;;21.91;56.97
69245;BME280;56357;52.304;4.870;2023-09-19T06:20:08;100966.59;;;21.95;57.05
69245;BME280;56357;52.304;4.870;2023-09-19T06:22:38;100973.53;;;22.03;56.52
69245;BME280;56357;52.304;4.870;2023-09-19T06:25:07;100966.34;;;21.92;57.03
69245;BME280;56357;52.304;4.870;2023-09-19T06:27:37;100959.03;;;21.91;56.96
69245;BME280;56357;52.304;4.870;2023-09-19T06:30:04;100973.00;;;22.01;57.09
69245;BME280;56357;52.304;4.870;2023-09-19T06:32:32;100966.63;;;21.90;57.13
69245;BME280;56357;52.304;4.870;2023-09-19T06:34:58;100979.97;;;21.84;57.46
69245;BME280;56357;52.304;4.870;2023-09-19T06:37:27;100966.03;;;22.12;57.26
69245;BME280;56357;52.304;4.870;2023-09-19T06:39:54;100980.38;;;21.97;56.89
69245;BME280;56357;52.304;4.870;2023-09-19T06:42:21;100977.91;;;21.90;57.56
69245;BME280;56357;52.304;4.870;2023-09-19T06:44:49;100981.22;;;21.97;57.33
69245;BME280;56357;52.304;4.870;2023-09-19T06:47:15;100976.78;;;21.91;57.90
69245;BME280;56357;52.304;4.870;2023-09-19T06:49:42;100980.81;;;22.04;57.29
69245;BME280;56357;52.304;4.870;2023-09-19T06:52:10;100977.63;;;21.92;56.78
69245;BME280;56357;52.304;4.870;2023-09-19T06:54:36;100971.69;;;22.12;57.09
69245;BME280;56357;52.304;4.870;2023-09-19T06:57:03;100979.75;;;22.00;56.70
69245;BME280;56357;52.304;4.870;2023-09-19T06:59:29;100987.44;;;21.94;57.11
69245;BME280;56357;52.304;4.870;2023-09-19T07:01:57;100990.00;;;21.96;57.50
69245;BME280;56357;52.304;4.870;2023-09-19T07:04:24;100995.53;;;22.01;57.53
69245;BME280;56357;52.304;4.870;2023-09-19T07:06:51;100998.59;;;22.04;57.24
69245;BME280;56357;52.304;4.870;2023-09-19T07:09:17;100989.81;;;22.06;58.21
69245;BME280;56357;52.304;4.870;2023-09-19T07:11:44;101003.78;;;21.97;57.10
69245;BME280;56357;52.304;4.870;2023-09-19T07:14:13;101003.69;;;22.02;57.58
69245;BME280;56357;52.304;4.870;2023-09-19T07:16:39;101007.16;;;22.18;57.73
69245;BME280;56357;52.304;4.870;2023-09-19T07:19:08;101003.94;;;22.06;57.57
69245;BME280;56357;52.304;4.870;2023-09-19T07:21:34;100989.53;;;22.26;57.46
69245;BME280;56357;52.304;4.870;2023-09-19T07:24:03;100998.69;;;22.18;57.71
69245;BME280;56357;52.304;4.870;2023-09-19T07:26:29;101002.88;;;22.20;57.68
69245;BME280;56357;52.304;4.870;2023-09-19T07:28:56;100995.94;;;22.31;58.56
69245;BME280;56357;52.304;4.870;2023-09-19T07:31:23;100991.47;;;22.30;58.33
69245;BME280;56357;52.304;4.870;2023-09-19T07:33:50;101001.66;;;22.45;57.18
69245;BME280;56357;52.304;4.870;2023-09-19T07:36:17;101017.28;;;22.56;57.91
69245;BME280;56357;52.304;4.870;2023-09-19T07:38:43;101014.53;;;22.51;58.26
69245;BME280;56357;52.304;4.870;2023-09-19T07:41:10;101014.44;;;22.56;59.74
69245;BME280;56357;52.304;4.870;2023-09-19T07:43:36;101013.59;;;22.55;58.68
69245;BME280;56357;52.304;4.870;2023-09-19T07:46:07;101012.41;;;22.80;58.34
69245;BME280;56357;52.304;4.870;2023-09-19T07:48:37;101006.13;;;22.83;58.22
69245;BME280;56357;52.304;4.870;2023-09-19T07:51:06;101005.59;;;22.81;57.70
69245;BME280;56357;52.304;4.870;2023-09-19T07:53:33;100999.44;;;22.93;57.82
69245;BME280;56357;52.304;4.870;2023-09-19T07:56:05;101010.63;;;22.84;58.45
69245;BME280;56357;52.304;4.870;2023-09-19T07:58:32;101002.09;;;23.03;56.59
69245;BME280;56357;52.304;4.870;2023-09-19T08:01:07;101014.69;;;23.10;57.02
69245;BME280;56357;52.304;4.870;2023-09-19T08:03:36;101000.84;;;22.95;57.54
69245;BME280;56357;52.304;4.870;2023-09-19T08:06:06;101011.97;;;23.05;57.53
69245;BME280;56357;52.304;4.870;2023-09-19T08:08:33;101000.03;;;23.08;57.60
69245;BME280;56357;52.304;4.870;2023-09-19T08:11:03;100996.78;;;23.01;57.32
69245;BME280;56357;52.304;4.870;2023-09-19T08:13:35;100996.78;;;23.01;57.82
69245;BME280;56357;52.304;4.870;2023-09-19T08:16:03;100990.09;;;23.11;57.12
69245;BME280;56357;52.304;4.870;2023-09-19T08:18:30;100985.81;;;23.27;57.15
69245;BME280;56357;52.304;4.870;2023-09-19T08:20:56;100985.75;;;23.32;57.72
69245;BME280;56357;52.304;4.870;2023-09-19T08:23:24;100991.56;;;23.22;57.20
69245;BME280;56357;52.304;4.870;2023-09-19T08:25:50;100987.53;;;23.41;55.88
69245;BME280;56357;52.304;4.870;2023-09-19T08:28:16;100981.78;;;23.74;56.69
69245;BME280;56357;52.304;4.870;2023-09-19T08:30:45;100985.19;;;23.84;56.30
69245;BME280;56357;52.304;4.870;2023-09-19T08:33:12;100991.56;;;24.17;54.77
69245;BME280;56357;52.304;4.870;2023-09-19T08:35:40;100988.53;;;24.00;55.78
69245;BME280;56357;52.304;4.870;2023-09-19T08:38:09;100974.94;;;24.02;55.12
69245;BME280;56357;52.304;4.870;2023-09-19T08:40:38;100991.50;;;23.81;55.73
69245;BME280;56357;52.304;4.870;2023-09-19T08:43:07;100984.25;;;23.89;56.10
69245;BME280;56357;52.304;4.870;2023-09-19T08:45:34;100988.69;;;23.81;55.74
69245;BME280;56357;52.304;4.870;2023-09-19T08:51:02;100984.88;;;23.99;56.44
69245;BME280;56357;52.304;4.870;2023-09-19T08:54:03;100991.03;;;25.17;53.53
69245;BME280;56357;52.304;4.870;2023-09-19T08:56:33;101002.63;;;24.40;54.08
69245;BME280;56357;52.304;4.870;2023-09-19T08:59:02;100992.59;;;24.57;55.14
69245;BME280;56357;52.304;4.870;2023-09-19T09:01:31;100989.88;;;24.87;54.71
69245;BME280;56357;52.304;4.870;2023-09-19T09:03:58;100992.44;;;24.75;54.70
69245;BME280;56357;52.304;4.870;2023-09-19T09:06:25;100999.28;;;24.74;55.11
69245;BME280;56357;52.304;4.870;2023-09-19T09:08:53;101001.75;;;25.20;53.64
69245;BME280;56357;52.304;4.870;2023-09-19T09:11:21;100994.25;;;24.93;53.49
69245;BME280;56357;52.304;4.870;2023-09-19T09:13:48;100989.97;;;25.35;53.64
69245;BME280;56357;52.304;4.870;2023-09-19T09:16:15;100985.75;;;24.93;54.94
69245;BME280;56357;52.304;4.870;2023-09-19T09:18:43;100982.41;;;25.53;53.53
69245;BME280;56357;52.304;4.870;2023-09-19T09:21:11;100995.06;;;25.24;52.92
69245;BME280;56357;52.304;4.870;2023-09-19T09:23:39;100988.78;;;24.39;55.18
69245;BME280;56357;52.304;4.870;2023-09-19T09:26:06;101005.78;;;24.39;54.42
69245;BME280;56357;52.304;4.870;2023-09-19T09:28:34;101002.88;;;24.17;57.07
69245;BME280;56357;52.304;4.870;2023-09-19T09:31:04;100993.91;;;24.01;56.39
69245;BME280;56357;52.304;4.870;2023-09-19T09:33:34;100992.84;;;23.97;58.10
69245;BME280;56357;52.304;4.870;2023-09-19T09:36:03;100992.22;;;24.00;58.32
69245;BME280;56357;52.304;4.870;2023-09-19T09:38:45;100976.19;;;23.96;58.71
69245;BME280;56357;52.304;4.870;2023-09-19T09:41:15;100973.16;;;24.06;57.45
69245;BME280;56357;52.304;4.870;2023-09-19T09:43:53;100978.22;;;23.82;59.32
69245;BME280;56357;52.304;4.870;2023-09-19T09:46:21;100973.78;;;23.89;60.41
69245;BME280;56357;52.304;4.870;2023-09-19T09:49:05;100979.13;;;23.91;59.94
69245;BME280;56357;52.304;4.870;2023-09-19T09:51:43;100979.97;;;23.91;60.38
69245;BME280;56357;52.304;4.870;2023-09-19T09:54:13;100979.47;;;23.76;59.26
69245;BME280;56357;52.304;4.870;2023-09-19T09:57:11;100967.72;;;23.82;59.78
69245;BME280;56357;52.304;4.870;2023-09-19T10:02:17;100978.63;;;23.75;58.29
69245;BME280;56357;52.304;4.870;2023-09-19T10:04:51;100956.41;;;23.82;60.50
69245;BME280;56357;52.304;4.870;2023-09-19T10:07:31;100962.81;;;23.88;58.96
69245;BME280;56357;52.304;4.870;2023-09-19T10:10:06;100953.66;;;23.91;58.27
69245;BME280;56357;52.304;4.870;2023-09-19T10:12:47;100954.00;;;23.89;58.31
69245;BME280;56357;52.304;4.870;2023-09-19T10:15:18;100943.63;;;23.85;57.46
69245;BME280;56357;52.304;4.870;2023-09-19T10:17:47;100953.03;;;23.94;57.86
69245;BME280;56357;52.304;4.870;2023-09-19T10:20:15;100942.16;;;23.87;57.50
69245;BME280;56357;52.304;4.870;2023-09-19T10:23:05;100935.44;;;23.97;58.11
69245;BME280;56357;52.304;4.870;2023-09-19T10:25:42;100921.81;;;23.99;57.03
69245;BME280;56357;52.304;4.870;2023-09-19T10:28:12;100928.59;;;23.98;56.13
69245;BME280;56357;52.304;4.870;2023-09-19T10:30:46;100932.94;;;23.95;55.85
69245;BME280;56357;52.304;4.870;2023-09-19T10:33:22;100939.19;;;23.92;56.96
69245;BME280;56357;52.304;4.870;2023-09-19T10:35:51;100911.59;;;23.76;57.02
69245;BME280;56357;52.304;4.870;2023-09-19T10:40:49;100910.75;;;23.75;57.12
69245;BME280;56357;52.304;4.870;2023-09-19T10:43:18;100920.28;;;23.66;57.56
69245;BME280;56357;52.304;4.870;2023-09-19T10:45:47;100905.53;;;23.69;57.36
69245;BME280;56357;52.304;4.870;2023-09-19T10:48:15;100912.63;;;23.80;56.86
69245;BME280;56357;52.304;4.870;2023-09-19T10:53:20;100914.75;;;23.60;56.75
69245;BME280;56357;52.304;4.870;2023-09-19T10:55:55;100912.84;;;23.70;56.32
69245;BME280;56357;52.304;4.870;2023-09-19T10:58:30;100902.28;;;23.61;56.81
69245;BME280;56357;52.304;4.870;2023-09-19T11:01:00;100909.50;;;23.68;56.63
69245;BME280;56357;52.304;4.870;2023-09-19T11:03:37;100918.72;;;23.59;56.92
69245;BME280;56357;52.304;4.870;2023-09-19T11:06:14;100917.28;;;23.62;56.60
69245;BME280;56357;52.304;4.870;2023-09-19T11:08:56;100913.28;;;23.63;56.70
69245;BME280;56357;52.304;4.870;2023-09-19T11:30:39;100883.94;;;23.73;55.77
69245;BME280;56357;52.304;4.870;2023-09-19T11:36:13;100887.56;;;23.51;56.34
69245;BME280;56357;52.304;4.870;2023-09-19T11:43:51;100904.19;;;23.39;55.94
69245;BME280;56357;52.304;4.870;2023-09-19T11:46:20;100903.16;;;23.48;55.75
69245;BME280;56357;52.304;4.870;2023-09-19T11:48:48;100893.03;;;23.34;56.80
69245;BME280;56357;52.304;4.870;2023-09-19T11:51:20;100898.16;;;23.32;56.48
69245;BME280;56357;52.304;4.870;2023-09-19T11:53:52;100902.72;;;23.55;56.71
69245;BME280;56357;52.304;4.870;2023-09-19T11:56:23;100892.16;;;23.47;56.21
69245;BME280;56357;52.304;4.870;2023-09-19T11:58:54;100897.81;;;23.33;56.39
69245;BME280;56357;52.304;4.870;2023-09-19T12:03:55;100895.09;;;23.42;56.54
69245;BME280;56357;52.304;4.870;2023-09-19T12:06:24;100904.53;;;23.37;56.60
69245;BME280;56357;52.304;4.870;2023-09-19T12:08:51;100889.75;;;23.40;56.35
69245;BME280;56357;52.304;4.870;2023-09-19T12:11:19;100886.56;;;23.28;56.62
69245;BME280;56357;52.304;4.870;2023-09-19T12:13:48;100894.56;;;23.26;57.32
69245;BME280;56357;52.304;4.870;2023-09-19T12:16:16;100903.56;;;23.15;56.80
69245;BME280;56357;52.304;4.870;2023-09-19T12:18:48;100907.53;;;23.27;57.39
69245;BME280;56357;52.304;4.870;2023-09-19T12:21:31;100906.47;;;23.23;57.20
69245;BME280;56357;52.304;4.870;2023-09-19T12:24:04;100920.59;;;23.23;57.06
69245;BME280;56357;52.304;4.870;2023-09-19T12:26:44;100899.88;;;23.14;57.21
69245;BME280;56357;52.304;4.870;2023-09-19T12:29:17;100900.94;;;23.18;57.07
69245;BME280;56357;52.304;4.870;2023-09-19T12:31:57;100898.84;;;23.10;57.47
69245;BME280;56357;52.304;4.870;2023-09-19T12:34:29;100912.44;;;22.95;57.65
69245;BME280;56357;52.304;4.870;2023-09-19T12:37:12;100890.16;;;23.07;57.61
69245;BME280;56357;52.304;4.870;2023-09-19T12:39:44;100888.38;;;23.24;57.14
69245;BME280;56357;52.304;4.870;2023-09-19T12:42:15;100877.69;;;23.21;57.17
69245;BME280;56357;52.304;4.870;2023-09-19T12:44:43;100872.03;;;23.21;57.35
69245;BME280;56357;52.304;4.870;2023-09-19T12:47:15;100874.13;;;23.29;56.59
69245;BME280;56357;52.304;4.870;2023-09-19T12:50:13;100877.53;;;23.31;56.95
69245;BME280;56357;52.304;4.870;2023-09-19T12:52:49;100887.84;;;23.22;56.58
69245;BME280;56357;52.304;4.870;2023-09-19T12:55:20;100880.53;;;23.21;56.69
69245;BME280;56357;52.304;4.870;2023-09-19T13:00:41;100863.47;;;23.26;56.19
69245;BME280;56357;52.304;4.870;2023-09-19T13:05:50;100871.44;;;23.24;56.17
69245;BME280;56357;52.304;4.870;2023-09-19T13:08:23;100870.38;;;23.20;56.76
69245;BME280;56357;52.304;4.870;2023-09-19T13:13:39;100863.06;;;23.33;56.70
69245;BME280;56357;52.304;4.870;2023-09-19T13:16:07;100877.28;;;23.28;56.65
69245;BME280;56357;52.304;4.870;2023-09-19T13:18:44;100863.38;;;23.31;56.55
69245;BME280;56357;52.304;4.870;2023-09-19T13:21:12;100869.13;;;23.26;56.05
69245;BME280;56357;52.304;4.870;2023-09-19T13:23:51;100886.63;;;23.15;56.12
69245;BME280;56357;52.304;4.870;2023-09-19T13:26:19;100885.84;;;23.23;56.12
69245;BME280;56357;52.304;4.870;2023-09-19T13:28:47;100886.28;;;23.16;56.38
69245;BME280;56357;52.304;4.870;2023-09-19T13:31:15;100881.97;;;23.19;56.93
69245;BME280;56357;52.304;4.870;2023-09-19T13:33:45;100892.16;;;23.20;56.52
69245;BME280;56357;52.304;4.870;2023-09-19T13:36:12;100914.94;;;23.23;56.25
69245;BME280;56357;52.304;4.870;2023-09-19T13:38:40;100897.78;;;23.20;56.94
69245;BME280;56357;52.304;4.870;2023-09-19T13:41:11;100889.44;;;23.01;56.67
69245;BME280;56357;52.304;4.870;2023-09-19T13:43:38;100883.34;;;23.21;56.51
69245;BME280;56357;52.304;4.870;2023-09-19T13:46:05;100874.34;;;23.19;56.67
69245;BME280;56357;52.304;4.870;2023-09-19T13:48:37;100872.25;;;23.11;56.23
69245;BME280;56357;52.304;4.870;2023-09-19T13:51:03;100876.56;;;23.22;56.71
69245;BME280;56357;52.304;4.870;2023-09-19T13:53:30;100864.72;;;23.20;56.77
69245;BME280;56357;52.304;4.870;2023-09-19T13:55:56;100875.31;;;23.15;57.33
69245;BME280;56357;52.304;4.870;2023-09-19T13:58:23;100889.19;;;23.25;56.89
69245;BME280;56357;52.304;4.870;2023-09-19T14:00:50;100909.75;;;23.17;56.60
69245;BME280;56357;52.304;4.870;2023-09-19T14:03:20;100907.41;;;23.19;57.08
69245;BME280;56357;52.304;4.870;2023-09-19T14:05:46;100916.19;;;23.04;57.74
69245;BME280;56357;52.304;4.870;2023-09-19T14:08:14;100892.13;;;23.06;57.97
69245;BME280;56357;52.304;4.870;2023-09-19T14:10:40;100883.53;;;23.11;57.97
69245;BME280;56357;52.304;4.870;2023-09-19T14:13:06;100875.59;;;23.00;58.68
69245;BME280;56357;52.304;4.870;2023-09-19T14:15:36;100872.88;;;23.08;58.22